Time;durP1;ratioP1;P1;durP2;ratioP2;P2;SDS_P1;SDS_P2;PMS_P1;PMS_P2;Temp;Humidity;BMP_temperature;BMP_pressure;BME280_temperature;BME280_humidity;BME280_pressure;Samples;Min_cycle;Max_cycle;Signal;HPM_P1;HPM_P2
2021/11/18 00:00:45;;;;;;;61.90;24.00;;;;;;;8.30;78.70;101290.69;5068164;28;20425;-53
2021/11/18 00:03:14;;;;;;;55.90;22.25;;;;;;;8.38;78.49;101283.75;5072438;28;20071;-53
2021/11/18 00:05:41;;;;;;;57.45;22.50;;;;;;;8.23;79.27;101278.19;5072376;28;20061;-53
2021/11/18 00:08:09;;;;;;;55.50;22.20;;;;;;;8.25;79.06;101284.31;5060915;28;20057;-52
2021/11/18 00:10:40;;;;;;;51.20;21.40;;;;;;;8.33;78.89;101286.53;5052059;28;20057;-53
2021/11/18 00:13:10;;;;;;;54.15;22.05;;;;;;;8.39;78.71;101295.69;5071630;28;20051;-53
2021/11/18 00:15:38;;;;;;;;;;;;;;;8.27;78.58;101295.97;5070719;28;20052;-55
2021/11/18 00:18:07;;;;;;;52.28;20.83;;;;;;;8.36;78.18;101291.53;5072105;28;19928;-52
2021/11/18 00:20:36;;;;;;;;;;;;;;;8.38;77.71;101300.41;5072552;28;20068;-53
2021/11/18 00:23:04;;;;;;;44.28;19.70;;;;;;;8.46;77.76;101296.25;5068381;28;19929;-52
2021/11/18 00:25:32;;;;;;;55.17;21.52;;;;;;;8.50;77.54;101297.34;5070027;28;20098;-52
2021/11/18 00:28:03;;;;;;;53.22;19.73;;;;;;;8.46;77.90;101301.81;5072140;28;20508;-52
2021/11/18 00:30:31;;;;;;;46.40;20.70;;;;;;;8.46;77.85;101308.22;5072358;28;20084;-52
2021/11/18 00:32:59;;;;;;;54.40;22.23;;;;;;;8.48;78.27;101300.44;5071280;28;20071;-52
2021/11/18 00:35:29;;;;;;;49.67;20.90;;;;;;;8.47;77.80;101297.94;5059574;28;20063;-53
2021/11/18 00:37:57;;;;;;;50.50;19.90;;;;;;;8.45;77.70;101298.22;5068448;28;20053;-53
2021/11/18 00:40:26;;;;;;;52.33;21.20;;;;;;;8.46;77.96;101305.44;5052273;28;20061;-52
2021/11/18 00:42:54;;;;;;;;;;;;;;;8.40;77.83;101303.75;5054198;28;20057;-53
2021/11/18 00:45:24;;;;;;;48.70;19.83;;;;;;;8.50;77.08;101308.47;5056052;28;20296;-54
2021/11/18 00:47:53;;;;;;;54.10;21.25;;;;;;;8.43;77.82;101314.31;5064666;28;20405;-54
2021/11/18 00:50:24;;;;;;;53.95;20.80;;;;;;;8.48;77.26;101303.22;5075808;28;20484;-53
2021/11/18 00:52:51;;;;;;;52.67;19.08;;;;;;;8.53;77.01;101305.97;5075687;28;20056;-54
2021/11/18 00:55:19;;;;;;;51.25;19.00;;;;;;;8.44;77.81;101298.47;5075449;28;20053;-53
2021/11/18 00:57:46;;;;;;;43.72;20.13;;;;;;;8.43;77.93;101302.38;5074343;28;20056;-54
2021/11/18 01:00:19;;;;;;;45.30;19.45;;;;;;;8.49;77.59;101306.81;5061922;28;20056;-54
2021/11/18 01:02:50;;;;;;;50.45;20.25;;;;;;;8.46;77.83;101312.91;5074800;28;20512;-52
2021/11/18 01:05:20;;;;;;;46.55;20.05;;;;;;;8.42;77.96;101322.91;5075290;28;20056;-53
2021/11/18 01:07:47;;;;;;;47.45;20.30;;;;;;;8.29;78.24;101322.34;5073991;28;20060;-53
2021/11/18 01:10:16;;;;;;;57.38;21.35;;;;;;;8.43;77.64;101335.69;5075485;28;20063;-53
2021/11/18 01:12:44;;;;;;;53.13;20.42;;;;;;;8.43;77.26;101336.53;5068678;28;20057;-55
2021/11/18 01:15:16;;;;;;;49.25;19.98;;;;;;;8.44;77.39;101335.44;5075493;28;20060;-53
2021/11/18 01:17:44;;;;;;;47.35;20.80;;;;;;;8.48;77.46;101322.66;5074905;28;20056;-53
2021/11/18 01:20:17;;;;;;;43.17;20.42;;;;;;;8.32;77.17;101318.19;5075448;28;20063;-53
2021/11/18 01:22:45;;;;;;;49.33;20.33;;;;;;;8.27;77.65;101326.50;5075390;28;20500;-54
2021/11/18 01:25:15;;;;;;;45.03;20.15;;;;;;;8.29;77.83;101327.06;5075646;28;20049;-55
2021/11/18 01:27:43;;;;;;;46.10;20.33;;;;;;;8.22;78.13;101332.06;5074802;28;20056;-55
2021/11/18 01:30:14;;;;;;;45.97;20.45;;;;;;;8.22;77.73;101345.94;5075452;28;20067;-54
2021/11/18 01:32:42;;;;;;;44.00;20.17;;;;;;;8.31;77.55;101347.88;5073556;28;20061;-53
2021/11/18 01:35:10;;;;;;;46.85;19.73;;;;;;;8.26;77.99;101344.28;5074921;28;20064;-54
2021/11/18 01:37:39;;;;;;;40.97;18.42;;;;;;;8.23;77.60;101334.56;5074924;28;20057;-55
2021/11/18 01:40:09;;;;;;;42.20;19.55;;;;;;;8.24;77.97;101339.00;5074819;28;20057;-53
2021/11/18 01:42:36;;;;;;;46.30;20.05;;;;;;;8.06;78.50;101337.63;5075084;28;20068;-53
2021/11/18 01:45:08;;;;;;;43.90;20.88;;;;;;;8.12;78.43;101347.56;5074818;28;20516;-54
2021/11/18 01:47:36;;;;;;;45.55;19.58;;;;;;;8.20;78.01;101353.72;5075579;28;20063;-53
2021/11/18 01:50:05;;;;;;;44.00;20.98;;;;;;;8.13;78.02;101351.22;5074908;28;20064;-55
2021/11/18 01:52:33;;;;;;;46.80;20.67;;;;;;;8.23;77.95;101355.91;5074596;28;20056;-53
2021/11/18 01:55:02;;;;;;;55.17;21.95;;;;;;;8.22;77.67;101345.94;5074267;28;20060;-53
2021/11/18 01:57:32;;;;;;;40.83;19.63;;;;;;;8.17;78.25;101354.25;5074755;28;20071;-55
2021/11/18 02:00:00;;;;;;;41.28;19.80;;;;;;;8.29;77.54;101365.91;5074288;28;20497;-53
2021/11/18 02:02:29;;;;;;;50.90;21.17;;;;;;;8.12;78.47;101355.91;5074728;28;20481;-52
2021/11/18 02:05:07;;;;;;;46.72;21.30;;;;;;;8.08;78.51;101352.03;5074772;28;20056;-53
2021/11/18 02:07:35;;;;;;;46.83;19.80;;;;;;;8.18;77.91;101342.06;5075088;28;20492;-54
2021/11/18 02:10:05;;;;;;;45.92;20.40;;;;;;;8.05;78.07;101349.81;5074322;28;20059;-53
2021/11/18 02:12:33;;;;;;;52.40;21.08;;;;;;;8.19;77.21;101352.88;5074127;28;20067;-55
2021/11/18 02:15:01;;;;;;;45.78;20.75;;;;;;;8.02;77.89;101347.59;5073866;28;20044;-55
2021/11/18 02:17:30;;;;;;;47.08;21.23;;;;;;;7.99;77.79;101356.47;5074199;28;20056;-53
2021/11/18 02:20:00;;;;;;;48.90;22.10;;;;;;;8.06;78.07;101362.59;5074274;28;20086;-55
2021/11/18 02:22:29;;;;;;;47.53;19.63;;;;;;;8.04;77.67;101370.34;5074461;28;20053;-55
2021/11/18 02:24:59;;;;;;;40.80;20.58;;;;;;;8.03;77.71;101377.00;5074570;28;20052;-54
2021/11/18 02:27:28;;;;;;;43.72;20.38;;;;;;;7.91;78.16;101377.25;5074279;28;20056;-53
2021/11/18 02:29:57;;;;;;;44.72;20.70;;;;;;;8.02;78.42;101385.59;5073206;28;20425;-53
2021/11/18 02:32:29;;;;;;;45.67;21.00;;;;;;;8.09;77.98;101391.72;5055766;28;20077;-55
2021/11/18 02:35:01;;;;;;;44.30;20.73;;;;;;;8.10;78.04;101387.81;5073820;28;20152;-54
2021/11/18 02:37:28;;;;;;;38.13;17.25;;;;;;;8.07;78.19;101389.22;5073497;28;20048;-53
2021/11/18 02:39:56;;;;;;;46.72;21.85;;;;;;;7.96;78.86;101395.00;5073820;28;20079;-55
2021/11/18 02:42:24;;;;;;;43.55;20.02;;;;;;;8.09;77.80;101394.50;5070236;28;20516;-54
2021/11/18 02:44:52;;;;;;;46.90;20.05;;;;;;;8.17;77.57;101390.31;5053446;28;20060;-52
2021/11/18 02:47:20;;;;;;;40.80;20.25;;;;;;;8.15;77.84;101396.16;5062560;28;20063;-53
2021/11/18 02:49:51;;;;;;;41.90;18.45;;;;;;;8.14;77.40;101395.31;5073702;28;20068;-52
2021/11/18 02:52:25;;;;;;;35.83;18.88;;;;;;;7.86;78.37;101390.28;5073431;28;20389;-53
2021/11/18 02:54:52;;;;;;;40.20;20.25;;;;;;;8.07;77.59;101393.94;5073405;28;20060;-53
2021/11/18 02:57:20;;;;;;;45.22;20.08;;;;;;;8.00;77.93;101394.19;5073172;28;20255;-53
2021/11/18 02:59:47;;;;;;;41.00;18.17;;;;;;;7.94;78.39;101378.66;5056498;28;20489;-53
2021/11/18 03:02:15;;;;;;;36.65;18.40;;;;;;;7.98;77.94;101382.53;5053790;28;20057;-54
2021/11/18 03:04:43;;;;;;;46.55;20.45;;;;;;;7.80;78.38;101378.34;5053252;28;20057;-53
2021/11/18 03:07:11;;;;;;;46.38;21.13;;;;;;;7.91;78.54;101379.19;5061324;28;20060;-54
2021/11/18 03:09:39;;;;;;;41.63;19.45;;;;;;;7.68;78.49;101392.44;5053528;28;20056;-52
2021/11/18 03:12:07;;;;;;;47.70;21.02;;;;;;;7.91;78.66;101391.09;5064641;28;20059;-52
2021/11/18 03:14:34;;;;;;;41.33;18.42;;;;;;;8.04;78.31;101383.38;5073117;28;20045;-54
2021/11/18 03:17:02;;;;;;;49.25;19.77;;;;;;;7.98;77.94;101382.53;5073343;28;20056;-54
2021/11/18 03:19:29;;;;;;;47.38;22.45;;;;;;;7.87;78.17;101391.94;5073404;28;20056;-52
2021/11/18 03:21:57;;;;;;;51.22;21.45;;;;;;;8.01;77.83;101384.75;5072977;28;20060;-52
2021/11/18 03:24:27;;;;;;;45.22;21.00;;;;;;;8.03;78.30;101377.00;5072462;28;20064;-55
2021/11/18 03:26:56;;;;;;;49.95;21.50;;;;;;;8.09;78.17;101384.22;5072836;28;20052;-52
2021/11/18 03:29:24;;;;;;;46.03;20.77;;;;;;;7.99;77.72;101386.97;5072984;28;20147;-52
2021/11/18 03:31:51;;;;;;;44.72;20.23;;;;;;;7.92;78.17;101398.34;5066872;28;20057;-54
2021/11/18 03:34:22;;;;;;;45.15;20.50;;;;;;;7.87;78.86;101397.47;5052878;28;20068;-53
2021/11/18 03:36:50;;;;;;;43.35;20.92;;;;;;;7.96;78.36;101387.53;5052764;28;20049;-55
2021/11/18 03:39:19;;;;;;;47.75;19.73;;;;;;;7.94;78.01;101400.84;5053008;28;20061;-52
2021/11/18 03:41:50;;;;;;;39.50;20.08;;;;;;;7.93;77.82;101394.44;5053431;28;20362;-55
2021/11/18 03:44:19;;;;;;;48.92;20.92;;;;;;;7.94;78.31;101411.94;5053097;28;20052;-53
2021/11/18 03:46:50;;;;;;;46.75;21.02;;;;;;;7.91;78.43;101418.03;5052631;28;20060;-56
2021/11/18 03:49:18;;;;;;;45.65;19.60;;;;;;;7.93;78.18;101415.81;5052013;28;20061;-52
2021/11/18 03:51:48;;;;;;;42.28;19.65;;;;;;;7.93;78.54;101410.25;5053083;28;20409;-53
2021/11/18 03:54:16;;;;;;;;;;;;;;;7.93;78.27;101413.03;5053688;28;20068;-53
2021/11/18 03:56:44;;;;;;;41.67;18.05;;;;;;;7.88;77.82;101413.84;5052998;28;19921;-55
2021/11/18 03:59:13;;;;;;;45.22;18.55;;;;;;;7.93;78.20;101413.03;5065814;28;20059;-56
2021/11/18 04:01:44;;;;;;;40.85;18.45;;;;;;;7.93;77.94;101415.81;5072145;28;20060;-54
2021/11/18 04:04:14;;;;;;;39.55;17.77;;;;;;;7.95;76.96;101396.94;5064319;28;20063;-53
2021/11/18 04:06:42;;;;;;;46.33;18.65;;;;;;;7.95;77.50;101398.91;5052151;28;20061;-53
2021/11/18 04:09:11;;;;;;;46.00;18.73;;;;;;;7.86;77.70;101399.44;5067008;28;20060;-53
2021/11/18 04:11:40;;;;;;;40.95;17.00;;;;;;;7.87;77.68;101405.81;5072675;28;20049;-53
2021/11/18 04:14:09;;;;;;;42.13;16.88;;;;;;;7.95;77.17;101419.13;5069715;28;20049;-54
2021/11/18 04:16:36;;;;;;;45.60;18.27;;;;;;;7.82;77.97;101416.91;5051665;28;20056;-54
2021/11/18 04:19:07;;;;;;;43.70;18.05;;;;;;;7.82;77.29;101411.34;5051309;28;20064;-53
2021/11/18 04:21:35;;;;;;;45.47;16.88;;;;;;;7.82;77.85;101419.66;5051898;28;20068;-56
2021/11/18 04:24:06;;;;;;;41.50;17.60;;;;;;;7.85;77.55;101419.09;5061615;28;20055;-53
2021/11/18 04:26:34;;;;;;;36.13;17.48;;;;;;;7.91;76.49;101423.56;5072038;28;20059;-53
2021/11/18 04:29:01;;;;;;;42.42;17.70;;;;;;;7.93;76.53;101422.19;5070913;28;20396;-53
2021/11/18 04:31:30;;;;;;;42.40;18.30;;;;;;;7.95;76.08;101430.25;5072206;28;20486;-54
2021/11/18 04:33:58;;;;;;;45.63;18.33;;;;;;;7.95;76.40;101418.31;5072437;28;20063;-53
2021/11/18 04:36:29;;;;;;;40.60;18.30;;;;;;;7.95;76.57;101429.41;5072337;28;20059;-55
2021/11/18 04:38:57;;;;;;;48.85;19.10;;;;;;;7.88;77.16;101427.72;5072004;28;20056;-53
2021/11/18 04:41:26;;;;;;;47.60;19.15;;;;;;;7.92;76.54;101419.72;5056036;28;20409;-55
2021/11/18 04:43:54;;;;;;;46.90;19.25;;;;;;;7.86;76.56;101404.97;5052712;28;20129;-54
2021/11/18 04:46:23;;;;;;;38.67;17.52;;;;;;;7.87;76.32;101403.03;5051867;28;20065;-55
2021/11/18 04:48:50;;;;;;;44.22;18.77;;;;;;;7.77;77.19;101401.09;5051964;28;20057;-55
2021/11/18 04:51:22;;;;;;;42.80;16.40;;;;;;;7.76;77.65;101404.94;5052150;28;20076;-52
2021/11/18 04:53:52;;;;;;;41.85;17.33;;;;;;;7.63;77.60;101391.59;5052019;28;20057;-54
2021/11/18 04:56:20;;;;;;;40.72;16.23;;;;;;;7.61;78.05;101386.31;5068366;28;20063;-53
2021/11/18 04:58:47;;;;;;;44.03;16.58;;;;;;;7.70;77.67;101383.84;5071734;28;20406;-53
2021/11/18 05:01:15;;;;;;;37.22;16.00;;;;;;;7.66;78.12;101385.50;5071623;28;20056;-55
2021/11/18 05:03:44;;;;;;;42.08;17.00;;;;;;;7.56;78.33;101394.63;5071534;28;20061;-55
2021/11/18 05:06:12;;;;;;;48.40;16.92;;;;;;;7.62;78.46;101403.78;5071504;28;20053;-57
2021/11/18 05:08:40;;;;;;;40.13;16.00;;;;;;;7.56;78.31;101416.81;5072308;28;20079;-54
2021/11/18 05:11:09;;;;;;;45.75;16.67;;;;;;;7.60;78.57;101411.53;5053928;28;20178;-54
2021/11/18 05:13:37;;;;;;;46.00;18.02;;;;;;;7.65;78.35;101401.31;5061417;28;20053;-53
2021/11/18 05:16:09;;;;;;;43.90;16.88;;;;;;;7.60;78.36;101401.31;5071519;28;20056;-52
2021/11/18 05:18:36;;;;;;;43.33;18.15;;;;;;;7.65;78.03;101403.25;5066143;28;20053;-54
2021/11/18 05:21:05;;;;;;;47.45;16.38;;;;;;;7.72;77.71;101407.41;5051570;28;20053;-55
2021/11/18 05:23:33;;;;;;;43.80;17.38;;;;;;;7.66;77.81;101405.72;5051642;28;20410;-54
2021/11/18 05:26:01;;;;;;;40.67;16.80;;;;;;;7.80;77.80;101405.25;5051679;28;20072;-53
2021/11/18 05:28:30;;;;;;;43.22;17.02;;;;;;;7.80;78.38;101408.84;5052222;28;20049;-53
2021/11/18 05:30:58;;;;;;;52.22;19.15;;;;;;;7.89;77.92;101400.81;5055553;28;20053;-53
2021/11/18 05:33:28;;;;;;;44.28;18.80;;;;;;;7.88;77.82;101408.31;5055270;28;20057;-54
2021/11/18 05:35:57;;;;;;;43.97;17.27;;;;;;;7.90;78.18;101402.50;5055409;28;20053;-56
2021/11/18 05:38:25;;;;;;;47.50;18.25;;;;;;;7.91;77.96;101418.03;5055010;28;20079;-55
2021/11/18 05:40:53;;;;;;;40.22;17.13;;;;;;;8.03;78.45;101410.28;5054689;28;20067;-53
2021/11/18 05:43:21;;;;;;;42.08;16.52;;;;;;;8.10;77.74;101410.84;5054986;28;20057;-55
2021/11/18 05:45:50;;;;;;;45.28;17.10;;;;;;;8.15;77.80;101404.50;5055347;28;20053;-53
2021/11/18 05:48:19;;;;;;;50.00;18.50;;;;;;;8.20;77.79;101412.00;5055356;28;20057;-55
2021/11/18 05:50:50;;;;;;;37.10;17.42;;;;;;;8.25;78.37;101409.19;5055135;28;20410;-55
2021/11/18 05:53:19;;;;;;;39.95;16.88;;;;;;;8.21;77.63;101417.28;5055182;28;20064;-56
2021/11/18 05:55:47;;;;;;;43.60;17.58;;;;;;;8.25;78.39;101411.97;5055203;28;20055;-53
2021/11/18 05:58:15;;;;;;;41.67;16.92;;;;;;;8.25;77.84;101414.75;5055093;28;20375;-55
2021/11/18 06:00:43;;;;;;;42.67;17.88;;;;;;;8.23;77.73;101408.66;5057520;28;20057;-53
2021/11/18 06:03:12;;;;;;;42.45;17.80;;;;;;;8.21;77.79;101422.81;5054897;28;20060;-53
2021/11/18 06:05:39;;;;;;;45.28;18.77;;;;;;;8.38;77.00;101430.88;5054150;28;20065;-53
2021/11/18 06:08:07;;;;;;;43.63;17.73;;;;;;;8.40;76.87;101428.66;5054608;28;20402;-56
2021/11/18 06:10:34;;;;;;;45.63;18.67;;;;;;;8.53;77.07;101430.09;5054268;28;20084;-57
2021/11/18 06:13:03;;;;;;;46.55;18.83;;;;;;;8.52;77.16;101437.59;5072618;28;20061;-54
2021/11/18 06:15:31;;;;;;;42.00;17.85;;;;;;;8.45;76.61;101445.34;5074046;28;20060;-53
2021/11/18 06:18:00;;;;;;;43.50;18.75;;;;;;;8.57;76.89;101436.75;5073825;28;20405;-53
2021/11/18 06:20:29;;;;;;;37.30;17.75;;;;;;;8.67;76.72;101441.47;5070403;28;20068;-55
2021/11/18 06:22:59;;;;;;;49.30;19.42;;;;;;;8.68;76.07;101429.25;5068908;28;20067;-53
2021/11/18 06:25:30;;;;;;;39.88;17.50;;;;;;;8.65;76.79;101436.22;5073867;28;20493;-54
2021/11/18 06:27:58;;;;;;;38.30;17.65;;;;;;;8.72;76.42;101444.25;5073992;28;20067;-54
2021/11/18 06:30:28;;;;;;;42.25;17.38;;;;;;;8.71;76.58;101439.81;5062807;28;20061;-53
2021/11/18 06:32:56;;;;;;;43.53;18.17;;;;;;;8.79;75.80;101452.31;5061271;28;20061;-56
2021/11/18 06:35:25;;;;;;;40.25;18.08;;;;;;;8.81;75.54;101453.69;5067822;28;20059;-53
2021/11/18 06:37:54;;;;;;;40.83;18.20;;;;;;;8.73;76.16;101451.47;5055252;28;20071;-53
2021/11/18 06:40:22;;;;;;;38.75;17.33;;;;;;;8.72;75.52;101447.88;5071660;28;20485;-53
2021/11/18 06:42:50;;;;;;;44.97;18.60;;;;;;;8.71;76.17;101445.34;5061796;28;20056;-53
2021/11/18 06:45:27;;;;;;;43.75;18.63;;;;;;;8.78;75.73;101443.16;5066107;28;20426;-53
2021/11/18 06:47:54;;;;;;;45.38;19.02;;;;;;;8.83;75.61;101443.13;5062237;28;20072;-53
2021/11/18 06:50:24;;;;;;;43.40;19.08;;;;;;;8.68;75.82;101449.53;5067630;28;20048;-53
2021/11/18 06:52:52;;;;;;;49.00;19.75;;;;;;;8.87;74.97;101449.81;5074212;28;20308;-57
2021/11/18 06:55:20;;;;;;;42.85;19.77;;;;;;;8.75;75.42;101463.13;5073855;28;20060;-54
2021/11/18 06:57:49;;;;;;;42.80;19.48;;;;;;;8.82;74.97;101455.38;5067546;28;20064;-55
2021/11/18 07:00:18;;;;;;;45.03;18.80;;;;;;;8.71;75.60;101451.78;5063037;28;20417;-54
2021/11/18 07:02:46;;;;;;;44.70;20.20;;;;;;;8.84;75.66;101463.41;5060453;28;20056;-55
2021/11/18 07:05:14;;;;;;;41.35;19.27;;;;;;;8.91;74.94;101456.47;5059797;28;20056;-54
2021/11/18 07:07:41;;;;;;;40.38;18.85;;;;;;;8.93;74.62;101462.56;5071219;28;20485;-54
2021/11/18 07:10:11;;;;;;;40.03;19.13;;;;;;;8.87;74.98;101463.69;5072375;28;20060;-55
2021/11/18 07:12:40;;;;;;;;;;;;;;;8.94;74.90;101461.47;5071806;28;20063;-54
2021/11/18 07:15:09;;;;;;;38.63;19.10;;;;;;;8.98;74.60;101472.03;5040070;28;19921;-55
2021/11/18 07:17:37;;;;;;;;;;;;;;;8.88;75.10;101472.84;5053023;28;20056;-54
2021/11/18 07:20:09;;;;;;;39.55;19.10;;;;;;;8.96;74.91;101479.81;5053645;28;19928;-54
2021/11/18 07:22:39;;;;;;;39.28;18.23;;;;;;;8.89;75.67;101478.13;5048512;28;20053;-55
2021/11/18 07:25:11;;;;;;;43.95;20.85;;;;;;;9.01;75.21;101479.78;5053349;28;20417;-57
2021/11/18 07:27:40;;;;;;;38.55;19.98;;;;;;;9.03;75.12;101489.53;5035210;28;20064;-54
2021/11/18 07:30:09;;;;;;;42.97;18.25;;;;;;;9.10;75.05;101484.50;5044327;28;20045;-54
2021/11/18 07:32:37;;;;;;;39.50;18.05;;;;;;;9.11;74.78;101479.78;5041284;28;20068;-54
2021/11/18 07:35:05;;;;;;;41.42;18.10;;;;;;;9.08;75.27;101480.34;5046832;28;20057;-55
2021/11/18 07:37:32;;;;;;;36.45;18.05;;;;;;;9.09;74.94;101480.09;5045773;28;20060;-54
2021/11/18 07:40:00;;;;;;;41.45;18.70;;;;;;;9.14;74.98;101473.69;5038091;28;20060;-54
2021/11/18 07:42:27;;;;;;;39.47;19.02;;;;;;;9.19;74.74;101490.34;5033980;28;20065;-57
2021/11/18 07:44:56;;;;;;;32.95;18.20;;;;;;;9.21;74.95;101496.44;5033035;28;20057;-56
2021/11/18 07:47:23;;;;;;;39.80;18.70;;;;;;;9.32;74.17;101505.59;5049118;28;20415;-54
2021/11/18 07:49:51;;;;;;;40.25;18.75;;;;;;;9.26;74.88;101503.94;5052258;28;20060;-54
2021/11/18 07:52:18;;;;;;;39.83;18.92;;;;;;;9.08;75.36;101502.59;5045588;28;20057;-54
2021/11/18 07:54:46;;;;;;;40.78;18.98;;;;;;;9.26;74.95;101499.25;5032652;28;20057;-54
2021/11/18 07:57:13;;;;;;;42.38;19.40;;;;;;;9.40;74.11;101493.09;5033615;28;20510;-56
2021/11/18 07:59:40;;;;;;;37.88;18.95;;;;;;;9.29;74.69;101489.50;5045746;28;20053;-56
2021/11/18 08:02:09;;;;;;;45.13;19.45;;;;;;;9.09;75.28;101482.00;5052668;28;20061;-54
2021/11/18 08:04:37;;;;;;;41.47;19.00;;;;;;;9.20;75.11;101499.50;5052383;28;20061;-55
2021/11/18 08:07:06;;;;;;;36.80;19.00;;;;;;;9.29;75.00;101498.66;5039555;28;20110;-54
2021/11/18 08:09:34;;;;;;;35.60;18.20;;;;;;;9.44;74.41;101491.41;5048422;28;20048;-54
2021/11/18 08:12:04;;;;;;;37.75;19.60;;;;;;;9.49;74.23;101491.38;5048106;28;20065;-58
2021/11/18 08:14:32;;;;;;;;;;;;;;;9.61;74.04;101491.91;5046872;28;20049;-58
2021/11/18 08:17:00;;;;;;;42.63;18.17;;;;;;;9.90;73.11;101496.81;5032557;28;19930;-57
2021/11/18 08:19:29;;;;;;;37.58;18.30;;;;;;;9.90;72.48;101491.25;5045808;28;20436;-57
2021/11/18 08:21:58;;;;;;;41.85;17.20;;;;;;;9.94;72.28;101498.75;5046486;28;20053;-58
2021/11/18 08:24:28;;;;;;;37.88;18.83;;;;;;;10.04;72.04;101508.19;5043005;28;20061;-58
2021/11/18 08:26:56;;;;;;;33.75;17.65;;;;;;;10.20;71.61;101503.34;5049758;28;20057;-57
2021/11/18 08:29:26;;;;;;;35.65;17.88;;;;;;;10.34;71.10;101504.44;5045656;28;20071;-57
2021/11/18 08:31:55;;;;;;;33.35;17.02;;;;;;;10.38;70.80;101516.66;5040191;28;20057;-58
2021/11/18 08:34:23;;;;;;;35.85;17.95;;;;;;;10.55;70.28;101517.09;5046738;28;20504;-57
2021/11/18 08:36:52;;;;;;;34.03;15.98;;;;;;;10.50;70.45;101527.47;5045802;28;20057;-58
2021/11/18 08:39:23;;;;;;;33.70;15.55;;;;;;;10.60;70.56;101537.69;5034317;28;20053;-56
2021/11/18 08:41:53;;;;;;;36.90;16.30;;;;;;;10.62;69.85;101529.88;5048260;28;20414;-56
2021/11/18 08:44:20;;;;;;;;;;;;;;;10.63;69.50;101537.13;5048479;28;20057;-56
2021/11/18 08:46:49;;;;;;;32.08;15.90;;;;;;;10.63;69.75;101537.13;5048978;28;19945;-58
2021/11/18 08:49:17;;;;;;;31.13;13.30;;;;;;;10.62;69.78;101546.59;5047426;28;20068;-57
2021/11/18 08:51:45;;;;;;;34.17;15.20;;;;;;;10.80;69.73;101553.47;5047413;28;20148;-58
2021/11/18 08:54:20;;;;;;;29.75;12.95;;;;;;;11.02;68.55;101547.44;5042325;28;20050;-59
2021/11/18 08:56:48;;;;;;;32.85;14.50;;;;;;;10.70;69.26;101540.41;5047634;28;20060;-58
2021/11/18 08:59:16;;;;;;;27.67;13.27;;;;;;;10.80;69.03;101532.00;5044401;28;20434;-56
2021/11/18 09:01:46;;;;;;;29.40;13.30;;;;;;;10.78;68.63;101534.22;5047892;28;20502;-58
2021/11/18 09:04:16;;;;;;;30.63;14.82;;;;;;;10.89;68.83;101533.03;5045030;28;20057;-57
2021/11/18 09:06:43;;;;;;;;;;;;;;;11.30;66.95;101518.75;5037326;28;20506;-58
2021/11/18 09:09:13;;;;;;;29.52;13.20;;;;;;;11.28;66.44;101517.38;5039842;28;20301;-58
2021/11/18 09:11:42;;;;;;;;;;;;;;;10.91;67.24;101519.63;5052405;28;20064;-58
2021/11/18 09:14:10;;;;;;;24.95;12.07;;;;;;;11.11;66.94;101523.38;5065577;28;19920;-56
2021/11/18 09:16:39;;;;;;;25.13;11.18;;;;;;;11.30;66.57;101524.31;5070780;28;20520;-59
2021/11/18 09:19:08;;;;;;;24.60;11.52;;;;;;;11.64;65.99;101523.41;5070450;28;20545;-59
2021/11/18 09:21:36;;;;;;;21.75;11.55;;;;;;;12.16;64.41;101523.69;5068994;28;20072;-59
2021/11/18 09:24:07;;;;;;;22.85;10.43;;;;;;;13.01;61.29;101527.44;5064907;28;20056;-58
2021/11/18 09:26:37;;;;;;;19.38;10.85;;;;;;;12.76;61.36;101537.06;5069920;28;20067;-58
2021/11/18 09:29:08;;;;;;;24.55;11.00;;;;;;;13.64;60.15;101528.03;5072102;28;20058;-59
2021/11/18 09:31:35;;;;;;;25.00;10.88;;;;;;;14.22;58.32;101519.00;5072357;28;20075;-58
2021/11/18 09:34:04;;;;;;;26.70;12.00;;;;;;;14.76;56.87;101513.59;5068186;28;20505;-56
2021/11/18 09:36:32;;;;;;;22.73;10.38;;;;;;;14.78;56.41;101519.72;5071828;28;20060;-57
2021/11/18 09:39:01;;;;;;;25.83;10.52;;;;;;;14.32;57.43;101526.34;5071571;28;20052;-57
2021/11/18 09:41:47;;;;;;;23.02;10.63;;;;;;;13.78;58.33;101518.50;5073260;28;20163;-57
2021/11/18 09:44:38;;;;;;;25.65;11.50;;;;;;;14.31;57.44;101513.50;5073287;28;20052;-58
2021/11/18 09:47:50;;;;;;;26.75;11.18;;;;;;;14.00;57.38;101514.13;5073245;28;20057;-58
2021/11/18 09:50:30;;;;;;;18.92;9.55;;;;;;;13.95;57.91;101517.88;5071345;28;20048;-56
2021/11/18 09:53:17;;;;;;;26.95;10.98;;;;;;;13.90;58.01;101520.81;5072804;28;20056;-57
2021/11/18 09:55:49;;;;;;;23.90;10.07;;;;;;;13.95;57.40;101522.66;5071356;28;20064;-58
2021/11/18 09:58:30;;;;;;;21.38;9.88;;;;;;;14.05;57.57;101511.25;5068203;28;20072;-57
2021/11/18 10:01:17;;;;;;;22.05;9.32;;;;;;;13.92;57.73;101510.13;5069746;28;20484;-58
2021/11/18 10:03:52;;;;;;;19.25;10.32;;;;;;;13.72;59.01;101518.91;5072003;28;20091;-57
2021/11/18 10:06:24;;;;;;;20.25;9.50;;;;;;;14.05;57.85;101530.84;5067193;28;20551;-56
2021/11/18 10:09:13;;;;;;;19.38;9.25;;;;;;;14.00;56.98;101536.53;5072064;28;20087;-57
2021/11/18 10:11:50;;;;;;;19.23;8.75;;;;;;;14.06;56.74;101532.50;5072501;28;20048;-58
2021/11/18 10:14:39;;;;;;;22.75;9.80;;;;;;;13.66;58.09;101534.16;5069302;28;20516;-58
2021/11/18 10:17:18;;;;;;;24.25;10.02;;;;;;;14.26;55.94;101524.78;5056073;28;20755;-58
2021/11/18 10:19:48;;;;;;;;;;;;;;;13.97;57.15;101518.41;5072307;28;20052;-57
2021/11/18 10:22:16;;;;;;;20.90;9.65;;;;;;;15.00;54.39;101525.34;5071974;28;20669;-57
2021/11/18 10:24:47;;;;;;;21.23;8.88;;;;;;;14.44;55.43;101512.63;5069253;28;20055;-58
2021/11/18 10:27:25;;;;;;;19.88;9.48;;;;;;;14.46;55.09;101518.75;5072723;28;20067;-57
2021/11/18 10:30:11;;;;;;;19.23;9.10;;;;;;;14.78;55.29;101525.31;5070921;28;20052;-56
2021/11/18 10:33:00;;;;;;;20.55;9.00;;;;;;;14.88;54.79;101522.28;5058618;28;20072;-57
2021/11/18 10:35:36;;;;;;;22.55;9.45;;;;;;;14.95;54.74;101519.88;5067176;28;20420;-56
2021/11/18 10:38:24;;;;;;;22.27;9.77;;;;;;;14.41;54.99;101533.72;5071850;28;20110;-56
2021/11/18 10:40:59;;;;;;;26.55;9.57;;;;;;;14.37;54.69;101540.25;5070378;28;20409;-56
2021/11/18 10:43:31;;;;;;;20.02;9.07;;;;;;;14.33;55.93;101530.81;5069968;28;20071;-57
2021/11/18 10:46:24;;;;;;;20.38;9.60;;;;;;;14.56;55.20;101532.56;5070729;28;20052;-58
2021/11/18 10:49:06;;;;;;;16.63;8.77;;;;;;;14.68;55.27;101522.75;5070555;28;20061;-58
2021/11/18 10:51:38;;;;;;;21.67;10.18;;;;;;;14.60;55.21;101536.41;5069813;28;20425;-58
2021/11/18 10:54:08;;;;;;;20.52;8.85;;;;;;;14.07;56.30;101530.53;5070922;28;20124;-58
2021/11/18 10:56:48;;;;;;;24.50;9.85;;;;;;;14.32;56.15;101534.75;5068858;28;20064;-59
2021/11/18 10:59:21;;;;;;;20.67;9.88;;;;;;;14.25;55.73;101532.38;5064633;28;20056;-59
2021/11/18 11:01:51;;;;;;;19.38;8.77;;;;;;;14.17;55.89;101524.72;5068290;28;20060;-58
2021/11/18 11:04:41;;;;;;;19.25;7.90;;;;;;;14.46;54.91;101517.91;5066807;28;20060;-58
2021/11/18 11:07:09;;;;;;;20.63;9.13;;;;;;;15.45;52.78;101504.00;5068019;28;20060;-58
2021/11/18 11:09:39;;;;;;;20.08;8.70;;;;;;;15.98;51.67;101509.53;5067000;28;20498;-58
2021/11/18 11:12:24;;;;;;;17.88;8.88;;;;;;;16.18;50.30;101508.09;5071747;28;20059;-59
2021/11/18 11:15:06;;;;;;;19.38;8.02;;;;;;;16.47;49.80;101508.66;5066476;28;20052;-59
2021/11/18 11:18:10;;;;;;;24.75;9.38;;;;;;;17.18;47.78;101500.72;5071758;28;20060;-59
2021/11/18 11:20:49;;;;;;;22.98;9.00;;;;;;;17.84;46.38;101505.97;5067235;28;20048;-57
2021/11/18 11:23:25;;;;;;;20.00;8.32;;;;;;;17.26;46.87;101510.31;5065269;28;20057;-58
2021/11/18 11:26:18;;;;;;;19.83;7.82;;;;;;;17.98;45.56;101494.47;5063441;28;20072;-56
2021/11/18 11:29:02;;;;;;;19.80;8.43;;;;;;;18.47;44.89;101496.81;5069922;28;20056;-58
2021/11/18 11:31:47;;;;;;;20.13;8.20;;;;;;;18.14;44.79;101503.19;5066809;28;20052;-57
2021/11/18 11:34:30;;;;;;;17.10;7.97;;;;;;;18.25;44.66;101489.50;5070599;28;20056;-59